createdAt,value
2023-02-02T00:01:33.556Z,2.00
2023-02-02T00:04:01.326Z,1.70
2023-02-02T00:06:30.858Z,2.20
2023-02-02T00:09:00.486Z,2.03
2023-02-02T00:11:28.399Z,2.63
2023-02-02T00:13:58.035Z,2.00
2023-02-02T00:16:28.557Z,1.70
2023-02-02T00:18:58.303Z,2.33
2023-02-02T00:21:25.680Z,2.00
2023-02-02T00:23:55.419Z,2.08
2023-02-02T00:26:23.264Z,2.08
2023-02-02T00:28:50.576Z,1.95
2023-02-02T00:31:20.214Z,2.20
2023-02-02T00:33:48.799Z,2.33
2023-02-02T00:36:16.856Z,2.22
2023-02-02T00:38:46.766Z,2.17
2023-02-02T00:41:13.991Z,1.63
2023-02-02T00:43:46.745Z,2.20
2023-02-02T00:46:17.954Z,2.13
2023-02-02T00:48:45.316Z,1.83
2023-02-02T00:51:12.562Z,1.85
2023-02-02T00:53:39.815Z,2.15
2023-02-02T00:56:07.294Z,1.73
2023-02-02T00:58:39.476Z,2.15
2023-02-02T01:01:14.742Z,1.85
2023-02-02T01:03:42.019Z,1.80
2023-02-02T01:06:09.298Z,1.98
2023-02-02T01:08:39.426Z,1.60
2023-02-02T01:11:12.091Z,1.80
2023-02-02T01:13:39.432Z,1.63
2023-02-02T01:16:07.467Z,1.60
2023-02-02T01:18:34.791Z,1.80
2023-02-02T01:21:04.650Z,1.95
2023-02-02T01:23:32.538Z,1.88
2023-02-02T01:26:01.971Z,1.90
2023-02-02T01:28:30.285Z,1.80
2023-02-02T01:30:58.430Z,1.90
2023-02-02T01:33:25.830Z,2.00
2023-02-02T01:35:55.042Z,2.50
2023-02-02T01:38:25.422Z,2.00
2023-02-02T01:40:54.988Z,2.15
2023-02-02T01:43:31.532Z,1.90
2023-02-02T01:45:59.396Z,2.40
2023-02-02T01:48:31.962Z,1.88
2023-02-02T01:51:03.752Z,1.95
2023-02-02T01:55:58.996Z,2.20
2023-02-02T01:58:31.723Z,2.03
2023-02-02T02:01:01.663Z,2.10
2023-02-02T02:03:32.130Z,2.25
2023-02-02T02:06:05.761Z,1.85
2023-02-02T02:09:00.830Z,2.20
2023-02-02T02:11:30.241Z,2.00
2023-02-02T02:14:20.750Z,2.15
2023-02-02T02:16:50.838Z,2.45
2023-02-02T02:20:11.400Z,1.80
2023-02-02T02:23:15.930Z,2.00
2023-02-02T02:26:14.300Z,1.60
2023-02-02T02:28:59.650Z,1.92
2023-02-02T02:31:51.395Z,2.20
2023-02-02T02:34:35.024Z,2.10
2023-02-02T02:37:08.850Z,1.92
2023-02-02T02:39:39.282Z,1.80
2023-02-02T02:42:14.781Z,2.03
2023-02-02T02:44:43.680Z,2.00
2023-02-02T02:47:13.390Z,1.50
2023-02-02T02:49:45.850Z,1.80
2023-02-02T02:52:13.182Z,1.67
2023-02-02T02:54:56.044Z,1.33
2023-02-02T02:57:37.988Z,1.65
2023-02-02T03:02:54.257Z,1.98
2023-02-02T03:05:40.165Z,1.38
2023-02-02T03:08:19.557Z,0.80
2023-02-02T03:10:47.683Z,0.65
2023-02-02T03:13:20.314Z,0.50
2023-02-02T03:15:49.978Z,0.52
2023-02-02T03:18:20.370Z,0.40
2023-02-02T03:20:47.647Z,0.60
2023-02-02T03:23:15.411Z,0.57
2023-02-02T03:25:43.431Z,0.40
2023-02-02T03:28:11.007Z,0.40
2023-02-02T03:30:39.916Z,0.40
2023-02-02T03:33:08.982Z,0.60
2023-02-02T03:35:39.173Z,0.50
2023-02-02T03:38:06.532Z,0.60
2023-02-02T03:40:33.775Z,0.50
2023-02-02T03:43:01.312Z,0.50
2023-02-02T03:45:28.980Z,0.50
2023-02-02T03:47:56.221Z,0.50
2023-02-02T03:50:25.201Z,0.50
2023-02-02T03:52:53.610Z,0.50
2023-02-02T03:55:21.064Z,0.50
2023-02-02T03:57:48.357Z,0.40
2023-02-02T04:00:18.559Z,0.68
2023-02-02T04:02:45.884Z,0.70
2023-02-02T04:05:13.230Z,0.90
2023-02-02T04:07:40.524Z,0.90
2023-02-02T04:10:08.163Z,0.60
2023-02-02T04:12:35.405Z,0.68
2023-02-02T04:15:02.710Z,0.70
2023-02-02T04:17:29.993Z,0.70
2023-02-02T04:19:59.697Z,0.57
2023-02-02T04:22:27.121Z,0.60
2023-02-02T04:24:56.815Z,0.45
2023-02-02T04:27:24.542Z,0.50
2023-02-02T04:29:54.320Z,0.50
2023-02-02T04:32:21.547Z,0.50
2023-02-02T04:34:51.383Z,0.50
2023-02-02T04:37:19.141Z,0.52
2023-02-02T04:39:46.411Z,0.90
2023-02-02T04:42:15.913Z,1.30
2023-02-02T04:44:45.806Z,1.13
2023-02-02T04:47:13.135Z,0.77
2023-02-02T04:49:40.467Z,0.60
2023-02-02T04:52:07.732Z,0.68
2023-02-02T04:54:35.045Z,0.70
2023-02-02T04:57:02.320Z,0.80
2023-02-02T04:59:32.121Z,0.90
2023-02-02T05:02:03.218Z,0.73
2023-02-02T05:04:30.748Z,0.80
2023-02-02T05:06:58.585Z,0.70
2023-02-02T05:09:26.096Z,0.73
2023-02-02T05:11:53.702Z,0.75
2023-02-02T05:14:23.253Z,0.90
2023-02-02T05:16:50.569Z,0.60
2023-02-02T05:19:20.320Z,1.10
2023-02-02T05:21:51.322Z,0.80
2023-02-02T05:24:18.753Z,0.70
2023-02-02T05:26:46.448Z,0.73
2023-02-02T05:29:16.173Z,0.98
2023-02-02T05:31:43.484Z,0.93
2023-02-02T05:34:13.491Z,0.95
2023-02-02T05:36:40.748Z,0.90
2023-02-02T05:39:10.896Z,0.70
2023-02-02T05:41:38.280Z,0.90
2023-02-02T05:44:05.634Z,0.70
2023-02-02T05:46:32.999Z,0.90
2023-02-02T05:49:00.633Z,0.80
2023-02-02T05:51:50.106Z,0.93
2023-02-02T05:54:20.623Z,0.60
2023-02-02T05:56:49.724Z,0.80
2023-02-02T05:59:18.207Z,0.98
2023-02-02T06:01:46.787Z,0.90
2023-02-02T06:04:14.832Z,1.30
2023-02-02T06:06:42.359Z,1.20
2023-02-02T06:09:10.522Z,1.30
2023-02-02T06:11:39.465Z,1.45
2023-02-02T06:14:09.617Z,2.30
2023-02-02T06:16:39.314Z,2.20
2023-02-02T06:19:06.627Z,1.70
2023-02-02T06:21:34.092Z,1.85
2023-02-02T06:24:02.234Z,2.30
2023-02-02T06:26:34.100Z,2.13
2023-02-02T06:31:31.461Z,1.70
2023-02-02T06:33:59.224Z,1.30
2023-02-02T06:36:27.983Z,1.00
2023-02-02T06:38:56.978Z,1.10
2023-02-02T06:41:25.625Z,1.00
2023-02-02T06:43:55.146Z,0.90
2023-02-02T06:46:22.698Z,1.00
2023-02-02T06:48:50.009Z,1.00
2023-02-02T06:51:22.080Z,1.10
2023-02-02T06:53:52.240Z,1.10
2023-02-02T06:56:19.484Z,1.20
2023-02-02T06:58:46.756Z,1.02
2023-02-02T07:01:14.640Z,2.40
2023-02-02T07:03:47.849Z,3.90
2023-02-02T07:06:16.790Z,3.80
2023-02-02T07:08:44.417Z,3.03
2023-02-02T07:11:16.665Z,1.40
2023-02-02T07:13:48.475Z,0.90
2023-02-02T07:16:17.500Z,1.40
2023-02-02T07:18:47.585Z,2.30
2023-02-02T07:21:26.289Z,1.90
2023-02-02T07:23:56.190Z,1.40
2023-02-02T07:26:27.713Z,1.30
2023-02-02T07:28:54.993Z,1.17
2023-02-02T07:31:24.699Z,0.98
2023-02-02T07:33:52.666Z,1.20
2023-02-02T07:36:23.480Z,0.82
2023-02-02T07:38:54.371Z,0.73
2023-02-02T07:41:22.380Z,1.15
2023-02-02T07:43:50.307Z,1.23
2023-02-02T07:46:18.908Z,1.70
2023-02-02T07:48:49.297Z,2.35
2023-02-02T07:51:18.403Z,1.90
2023-02-02T07:53:49.305Z,2.35
2023-02-02T07:56:27.022Z,2.55
2023-02-02T07:58:55.882Z,2.13
2023-02-02T08:01:27.018Z,1.70
2023-02-02T08:03:55.991Z,1.48
2023-02-02T08:06:28.812Z,1.70
2023-02-02T08:08:59.155Z,2.53
2023-02-02T08:11:29.943Z,2.45
2023-02-02T08:13:59.851Z,3.00
2023-02-02T08:16:28.645Z,2.25
2023-02-02T08:18:56.469Z,2.03
2023-02-02T08:21:23.837Z,2.10
2023-02-02T08:23:52.604Z,1.70
2023-02-02T08:26:22.136Z,2.90
2023-02-02T08:28:55.337Z,2.40
2023-02-02T08:31:25.982Z,1.40
2023-02-02T08:33:57.902Z,1.20
2023-02-02T08:36:27.239Z,1.00
2023-02-02T08:38:54.740Z,1.80
2023-02-02T08:41:24.189Z,1.40
2023-02-02T08:43:51.904Z,1.30
2023-02-02T08:46:22.929Z,1.35
2023-02-02T08:48:52.544Z,2.03
2023-02-02T08:51:22.377Z,1.45
2023-02-02T08:53:49.694Z,1.33
2023-02-02T08:56:21.646Z,1.30
2023-02-02T08:58:58.196Z,1.40
2023-02-02T09:01:30.580Z,1.45
2023-02-02T09:04:04.371Z,1.02
2023-02-02T09:06:36.368Z,1.35
2023-02-02T09:09:08.005Z,1.30
2023-02-02T09:11:35.925Z,1.10
2023-02-02T09:14:03.771Z,1.10
2023-02-02T09:16:31.218Z,1.40
2023-02-02T09:19:01.453Z,1.20
2023-02-02T09:21:31.142Z,1.20
2023-02-02T09:24:00.549Z,1.30
2023-02-02T09:26:29.632Z,1.42
2023-02-02T09:29:02.936Z,1.20
2023-02-02T09:31:37.266Z,1.58
2023-02-02T09:34:10.151Z,2.20
2023-02-02T09:36:38.657Z,2.00
2023-02-02T09:39:08.472Z,1.40
2023-02-02T09:41:38.546Z,1.50
2023-02-02T09:44:33.000Z,1.40
2023-02-02T09:47:37.551Z,2.10
2023-02-02T09:50:29.912Z,2.53
2023-02-02T09:53:19.367Z,1.90
2023-02-02T09:55:49.857Z,3.10
2023-02-02T09:58:29.802Z,2.38
2023-02-02T10:01:06.363Z,2.45
2023-02-02T10:03:57.904Z,2.28
2023-02-02T10:06:35.625Z,1.60
2023-02-02T10:09:36.882Z,1.50
2023-02-02T10:12:32.539Z,1.83
2023-02-02T10:15:06.378Z,1.20
2023-02-02T10:17:59.547Z,1.20
2023-02-02T10:20:44.853Z,1.80
2023-02-02T10:23:23.511Z,1.70
2023-02-02T10:26:16.508Z,1.03
2023-02-02T10:29:04.424Z,1.10
2023-02-02T10:32:01.875Z,2.45
2023-02-02T10:34:38.115Z,1.58
2023-02-02T10:37:32.820Z,1.60
2023-02-02T10:40:18.056Z,1.00
2023-02-02T10:43:18.867Z,1.40
2023-02-02T10:45:50.250Z,1.20
2023-02-02T10:48:22.645Z,1.08
2023-02-02T10:50:57.923Z,1.27
2023-02-02T10:53:32.969Z,1.48
2023-02-02T10:56:08.799Z,1.25
2023-02-02T10:58:44.313Z,1.08
2023-02-02T11:01:11.995Z,1.10
2023-02-02T11:03:40.269Z,1.35
2023-02-02T11:06:27.430Z,1.20
2023-02-02T11:08:59.593Z,1.20
2023-02-02T11:11:38.283Z,1.08
2023-02-02T11:14:08.593Z,0.98
2023-02-02T11:16:43.691Z,1.20
2023-02-02T11:19:29.714Z,1.30
2023-02-02T11:22:03.111Z,1.80
2023-02-02T11:24:49.962Z,1.55
2023-02-02T11:27:24.360Z,1.20
2023-02-02T11:29:54.601Z,1.45
2023-02-02T11:32:35.084Z,1.70
2023-02-02T11:35:08.504Z,2.17
2023-02-02T11:37:41.565Z,2.53
2023-02-02T11:40:30.390Z,3.83
2023-02-02T11:43:01.084Z,6.72
2023-02-02T11:45:41.702Z,5.00
2023-02-02T11:48:18.113Z,3.90
2023-02-02T11:50:47.853Z,3.55
2023-02-02T11:53:58.461Z,3.03
2023-02-02T11:56:26.962Z,3.10
2023-02-02T11:58:59.718Z,2.47
2023-02-02T12:01:43.940Z,2.80
2023-02-02T12:04:17.037Z,2.60
2023-02-02T12:06:46.597Z,2.47
2023-02-02T12:09:25.066Z,2.30
2023-02-02T12:12:16.941Z,2.45
2023-02-02T12:14:47.204Z,2.30
2023-02-02T12:17:23.631Z,2.60
2023-02-02T12:20:01.227Z,2.50
2023-02-02T12:22:54.086Z,2.95
2023-02-02T12:25:33.392Z,2.28
2023-02-02T12:28:20.887Z,2.30
2023-02-02T12:30:53.815Z,2.60
2023-02-02T12:33:23.495Z,2.33
2023-02-02T12:36:29.930Z,3.30
2023-02-02T12:39:08.779Z,2.75
2023-02-02T12:41:54.899Z,2.70
2023-02-02T12:44:43.876Z,2.90
2023-02-02T12:47:41.133Z,22.73
2023-02-02T12:50:27.396Z,11.03
2023-02-02T12:53:15.433Z,5.63
2023-02-02T12:56:00.228Z,4.05
2023-02-02T12:58:49.838Z,3.80
2023-02-02T13:01:22.792Z,3.92
2023-02-02T13:04:14.014Z,3.50
2023-02-02T13:07:34.846Z,3.00
2023-02-02T13:10:09.057Z,2.80
2023-02-02T13:13:01.354Z,2.70
2023-02-02T13:15:44.025Z,3.13
2023-02-02T13:18:18.918Z,3.00
2023-02-02T13:20:49.548Z,3.17
2023-02-02T13:23:18.841Z,6.10
2023-02-02T13:25:59.500Z,5.97
2023-02-02T13:29:02.011Z,4.20
2023-02-02T13:31:34.479Z,3.20
2023-02-02T13:34:21.708Z,3.20
2023-02-02T13:37:06.864Z,3.42
2023-02-02T13:39:42.790Z,3.20
2023-02-02T13:42:42.172Z,2.33
2023-02-02T13:45:35.895Z,2.67
2023-02-02T13:48:14.118Z,2.72
2023-02-02T13:51:03.600Z,3.25
2023-02-02T13:53:43.484Z,3.38
2023-02-02T13:56:46.667Z,3.60
2023-02-02T13:59:16.965Z,4.07
2023-02-02T14:01:48.622Z,4.55
2023-02-02T14:04:25.549Z,3.70
2023-02-02T14:09:38.429Z,3.22
2023-02-02T14:12:09.591Z,3.20
2023-02-02T14:14:39.913Z,3.63
2023-02-02T14:17:13.230Z,2.63
2023-02-02T14:19:42.152Z,2.83
2023-02-02T14:22:09.529Z,2.70
2023-02-02T14:24:36.792Z,2.78
2023-02-02T14:27:10.205Z,2.40
2023-02-02T14:29:58.836Z,2.40
2023-02-02T14:32:30.441Z,2.70
2023-02-02T14:34:59.097Z,2.75
2023-02-02T14:37:26.389Z,2.35
2023-02-02T14:40:11.325Z,2.30
2023-02-02T14:43:15.028Z,2.58
2023-02-02T14:45:44.084Z,2.38
2023-02-02T14:48:29.154Z,2.78
2023-02-02T14:51:01.685Z,3.15
2023-02-02T14:53:30.681Z,3.08
2023-02-02T14:56:20.806Z,2.97
2023-02-02T14:59:02.120Z,2.45
2023-02-02T15:01:37.458Z,3.00
2023-02-02T15:04:26.300Z,2.50
2023-02-02T15:06:54.076Z,2.50
2023-02-02T15:09:26.596Z,2.10
2023-02-02T15:12:02.920Z,2.00
2023-02-02T15:14:38.662Z,1.80
2023-02-02T15:17:25.355Z,2.80
2023-02-02T15:20:14.029Z,2.53
2023-02-02T15:23:04.384Z,3.15
2023-02-02T15:25:44.214Z,3.95
2023-02-02T15:28:24.364Z,4.57
2023-02-02T15:31:19.831Z,6.00
2023-02-02T15:33:55.388Z,6.35
2023-02-02T15:36:33.243Z,10.50
2023-02-02T15:39:08.562Z,14.30
2023-02-02T15:41:46.420Z,13.80
2023-02-02T15:44:32.458Z,10.65
2023-02-02T15:47:00.942Z,5.40
2023-02-02T15:49:34.766Z,4.97
2023-02-02T15:52:22.076Z,5.10
2023-02-02T15:54:53.936Z,6.88
2023-02-02T15:59:54.572Z,5.13
2023-02-02T16:02:26.278Z,3.50
2023-02-02T16:04:53.539Z,3.15
2023-02-02T16:07:29.959Z,2.80
2023-02-02T16:10:05.869Z,2.63
2023-02-02T16:12:37.481Z,2.78
2023-02-02T16:15:22.541Z,3.20
2023-02-02T16:18:04.827Z,2.67
2023-02-02T16:20:38.454Z,2.65
2023-02-02T16:23:17.420Z,2.83
2023-02-02T16:25:53.396Z,2.72
2023-02-02T16:28:24.914Z,2.80
2023-02-02T16:30:53.058Z,2.67
2023-02-02T16:33:29.677Z,2.33
2023-02-02T16:35:57.454Z,2.30
2023-02-02T16:38:36.695Z,2.53
2023-02-02T16:41:12.286Z,2.40
2023-02-02T16:43:44.835Z,2.20
2023-02-02T16:46:17.445Z,2.40
2023-02-02T16:49:06.268Z,2.40
2023-02-02T16:51:34.218Z,2.50
2023-02-02T16:54:17.898Z,2.50
2023-02-02T16:57:00.320Z,2.28
2023-02-02T16:59:39.206Z,2.42
2023-02-02T17:02:30.035Z,2.65
2023-02-02T17:05:16.996Z,2.20
2023-02-02T17:07:54.264Z,2.20
2023-02-02T17:10:23.870Z,2.47
2023-02-02T17:12:51.307Z,2.65
2023-02-02T17:15:18.515Z,2.90
2023-02-02T17:17:50.075Z,2.85
2023-02-02T17:20:21.868Z,3.25
2023-02-02T17:25:32.525Z,3.30
2023-02-02T17:28:02.642Z,3.42
2023-02-02T17:30:30.750Z,4.15
2023-02-02T17:32:58.281Z,4.13
2023-02-02T17:35:39.938Z,4.95
2023-02-02T17:38:19.188Z,5.95
2023-02-02T17:43:14.184Z,7.05
2023-02-02T17:45:44.391Z,6.75
2023-02-02T17:48:15.190Z,5.40
2023-02-02T17:50:43.286Z,4.63
2023-02-02T17:53:13.013Z,4.00
2023-02-02T17:55:46.293Z,4.30
2023-02-02T17:58:18.147Z,4.88
2023-02-02T18:00:47.838Z,5.00
2023-02-02T18:03:22.159Z,4.73
2023-02-02T18:05:52.676Z,4.68
2023-02-02T18:08:20.298Z,3.90
2023-02-02T18:10:50.556Z,3.75
2023-02-02T18:13:19.710Z,4.20
2023-02-02T18:15:49.985Z,4.38
2023-02-02T18:18:19.733Z,4.72
2023-02-02T18:20:49.238Z,5.15
2023-02-02T18:23:18.215Z,4.40
2023-02-02T18:25:45.685Z,4.70
2023-02-02T18:28:17.297Z,4.80
2023-02-02T18:30:48.816Z,5.38
2023-02-02T18:33:19.986Z,5.38
2023-02-02T18:35:51.012Z,6.10
2023-02-02T18:38:21.320Z,5.50
2023-02-02T18:40:56.514Z,5.40
2023-02-02T18:43:23.879Z,5.72
2023-02-02T18:46:06.227Z,5.78
2023-02-02T18:48:33.590Z,6.00
2023-02-02T18:51:08.426Z,5.47
2023-02-02T18:53:35.716Z,5.53
2023-02-02T18:56:07.595Z,5.47
2023-02-02T18:58:35.806Z,5.45
2023-02-02T19:01:15.461Z,5.55
2023-02-02T19:03:49.828Z,5.70
2023-02-02T19:06:36.722Z,5.18
2023-02-02T19:09:06.569Z,4.95
2023-02-02T19:11:40.209Z,4.47
2023-02-02T19:14:26.922Z,3.70
2023-02-02T19:16:59.515Z,4.32
2023-02-02T19:19:29.257Z,3.90
2023-02-02T19:21:58.508Z,3.90
2023-02-02T19:24:38.859Z,3.97
2023-02-02T19:27:20.845Z,3.60
2023-02-02T19:32:23.040Z,4.63
2023-02-02T19:34:53.085Z,4.30
2023-02-02T19:37:34.144Z,4.47
2023-02-02T19:40:08.284Z,4.82
2023-02-02T19:42:47.363Z,4.90
2023-02-02T19:45:22.351Z,4.43
2023-02-02T19:47:53.250Z,4.07
2023-02-02T19:50:26.056Z,4.25
2023-02-02T19:52:55.750Z,4.30
2023-02-02T19:55:29.436Z,3.73
2023-02-02T19:58:17.400Z,3.60
2023-02-02T20:00:48.220Z,3.60
2023-02-02T20:03:28.150Z,3.50
2023-02-02T20:05:56.953Z,3.50
2023-02-02T20:08:39.355Z,3.33
2023-02-02T20:11:23.421Z,3.40
2023-02-02T20:13:51.483Z,3.00
2023-02-02T20:16:23.932Z,2.60
2023-02-02T20:18:54.544Z,2.70
2023-02-02T20:21:45.264Z,2.13
2023-02-02T20:24:19.223Z,1.90
2023-02-02T20:26:46.963Z,2.20
2023-02-02T20:29:27.975Z,2.53
2023-02-02T20:31:58.390Z,1.90
2023-02-02T20:34:30.014Z,1.48
2023-02-02T20:37:22.925Z,1.65
2023-02-02T20:39:55.732Z,2.00
2023-02-02T20:42:23.529Z,1.50
2023-02-02T20:44:53.677Z,1.95
2023-02-02T20:47:23.487Z,1.67
2023-02-02T20:49:50.923Z,2.28
2023-02-02T20:52:23.966Z,1.63
2023-02-02T20:54:52.116Z,4.60
2023-02-02T20:57:19.778Z,1.23
2023-02-02T20:59:47.034Z,1.00
2023-02-02T21:02:19.179Z,1.00
2023-02-02T21:04:50.334Z,1.20
2023-02-02T21:07:19.757Z,1.00
2023-02-02T21:09:49.078Z,1.30
2023-02-02T21:12:17.797Z,1.10
2023-02-02T21:14:45.214Z,1.10
2023-02-02T21:17:15.502Z,0.90
2023-02-02T21:19:44.022Z,1.20
2023-02-02T21:22:11.903Z,1.20
2023-02-02T21:24:42.546Z,1.08
2023-02-02T21:27:12.212Z,1.30
2023-02-02T21:29:39.578Z,1.17
2023-02-02T21:32:06.964Z,1.15
2023-02-02T21:34:37.818Z,1.25
2023-02-02T21:37:15.137Z,1.25
2023-02-02T21:39:48.640Z,1.33
2023-02-02T21:42:22.019Z,1.33
2023-02-02T21:45:25.437Z,1.40
2023-02-02T21:47:58.916Z,1.40
2023-02-02T21:50:28.784Z,1.75
2023-02-02T21:53:22.574Z,1.60
2023-02-02T21:55:59.782Z,1.60
2023-02-02T21:58:42.142Z,1.60
2023-02-02T22:01:24.174Z,1.60
2023-02-02T22:03:56.245Z,1.73
2023-02-02T22:06:37.782Z,1.73
2023-02-02T22:09:14.046Z,1.92
2023-02-02T22:12:01.987Z,2.17
2023-02-02T22:14:37.749Z,2.30
2023-02-02T22:17:40.954Z,2.00
2023-02-02T22:20:19.954Z,2.25
2023-02-02T22:22:55.031Z,2.40
2023-02-02T22:25:28.013Z,2.38
2023-02-02T22:28:01.474Z,2.80
2023-02-02T22:30:37.831Z,2.30
2023-02-02T22:33:06.837Z,2.38
2023-02-02T22:35:36.938Z,2.40
2023-02-02T22:38:05.268Z,2.40
2023-02-02T22:40:35.344Z,2.53
2023-02-02T22:43:07.951Z,2.77
2023-02-02T22:45:37.638Z,2.40
2023-02-02T22:48:05.264Z,2.30
2023-02-02T22:50:35.815Z,2.60
2023-02-02T22:53:07.632Z,2.43
2023-02-02T22:58:04.932Z,2.70
2023-02-02T23:00:38.149Z,2.65
2023-02-02T23:03:05.469Z,3.10
2023-02-02T23:05:32.868Z,2.87
2023-02-02T23:08:00.137Z,2.83
2023-02-02T23:10:35.104Z,3.00
2023-02-02T23:13:04.364Z,3.35
2023-02-02T23:15:32.440Z,2.70
2023-02-02T23:17:59.837Z,2.70
2023-02-02T23:20:28.008Z,2.63
2023-02-02T23:22:57.745Z,3.38
2023-02-02T23:25:25.167Z,3.27
2023-02-02T23:27:52.498Z,3.10
2023-02-02T23:30:22.190Z,3.08
2023-02-02T23:32:49.544Z,2.63
2023-02-02T23:35:16.919Z,2.95
2023-02-02T23:37:44.230Z,3.00
2023-02-02T23:40:12.236Z,2.80
2023-02-02T23:42:39.594Z,3.00
2023-02-02T23:45:07.253Z,3.07
2023-02-02T23:47:34.958Z,3.22
2023-02-02T23:50:05.119Z,3.50
2023-02-02T23:52:34.144Z,3.10
2023-02-02T23:55:02.247Z,2.80
2023-02-02T23:57:29.748Z,2.50
2023-02-02T23:59:57.031Z,3.00
